createdAt,value
2017-07-16T00:00:21.624Z,15.00
2017-07-16T00:02:49.204Z,15.00
2017-07-16T00:05:16.815Z,15.10
2017-07-16T00:07:44.382Z,15.10
2017-07-16T00:15:58.521Z,15.20
2017-07-16T00:18:26.848Z,15.30
2017-07-16T00:20:54.405Z,15.30
2017-07-16T00:23:22.135Z,15.30
2017-07-16T00:25:49.700Z,15.30
2017-07-16T00:28:17.257Z,15.40
2017-07-16T00:30:44.887Z,15.40
2017-07-16T00:33:12.463Z,15.40
2017-07-16T00:35:40.031Z,15.50
2017-07-16T00:38:07.939Z,15.50
2017-07-16T00:40:35.589Z,15.50
2017-07-16T00:43:03.151Z,15.50
2017-07-16T00:45:30.763Z,15.50
2017-07-16T00:47:59.097Z,15.40
2017-07-16T00:50:26.669Z,15.40
2017-07-16T00:52:54.263Z,15.40
2017-07-16T00:55:21.826Z,15.40
2017-07-16T00:57:49.393Z,15.40
2017-07-16T01:00:17.016Z,15.40
2017-07-16T01:02:44.581Z,15.50
2017-07-16T01:05:12.151Z,15.60
2017-07-16T01:07:39.768Z,15.50
2017-07-16T01:10:07.329Z,15.60
2017-07-16T01:12:34.888Z,15.60
2017-07-16T01:15:02.505Z,15.60
2017-07-16T01:17:30.075Z,15.60
2017-07-16T01:19:57.643Z,15.60
2017-07-16T01:22:25.252Z,15.70
2017-07-16T01:24:52.820Z,15.70
2017-07-16T01:27:21.163Z,15.80
2017-07-16T01:29:49.057Z,15.70
2017-07-16T01:32:16.615Z,15.70
2017-07-16T01:34:44.187Z,15.70
2017-07-16T01:37:12.664Z,15.80
2017-07-16T01:39:40.225Z,15.80
2017-07-16T01:42:08.566Z,15.80
2017-07-16T01:44:36.289Z,15.80
2017-07-16T01:47:03.852Z,15.90
2017-07-16T01:49:31.425Z,15.90
2017-07-16T01:51:59.117Z,15.90
2017-07-16T01:54:26.681Z,15.90
2017-07-16T01:56:54.243Z,15.90
2017-07-16T01:59:21.838Z,15.90
2017-07-16T02:01:50.174Z,15.90
2017-07-16T02:04:17.738Z,15.90
2017-07-16T02:06:45.348Z,15.90
2017-07-16T02:09:12.908Z,15.90
2017-07-16T02:11:40.471Z,16.00
2017-07-16T02:14:08.220Z,16.00
2017-07-16T02:16:35.790Z,15.90
2017-07-16T02:19:03.372Z,15.90
2017-07-16T02:21:31.134Z,15.90
2017-07-16T02:23:58.696Z,15.80
2017-07-16T02:26:26.262Z,15.80
2017-07-16T02:28:53.994Z,15.80
2017-07-16T02:31:21.571Z,15.70
2017-07-16T02:33:49.130Z,15.70
2017-07-16T02:36:16.845Z,15.70
2017-07-16T02:38:45.176Z,15.80
2017-07-16T02:41:12.734Z,15.70
2017-07-16T02:43:40.323Z,15.80
2017-07-16T02:46:07.896Z,15.70
2017-07-16T02:48:35.463Z,15.80
2017-07-16T02:51:03.192Z,15.80
2017-07-16T02:53:30.762Z,15.90
2017-07-16T02:55:58.317Z,15.90
2017-07-16T02:58:25.905Z,15.90
2017-07-16T03:00:53.473Z,15.90
2017-07-16T03:03:21.041Z,16.00
2017-07-16T03:05:48.965Z,15.90
2017-07-16T03:08:16.538Z,16.00
2017-07-16T03:10:44.096Z,16.00
2017-07-16T03:13:12.059Z,16.00
2017-07-16T03:15:39.621Z,16.00
2017-07-16T03:18:07.182Z,16.00
2017-07-16T03:20:35.077Z,16.00
2017-07-16T03:23:03.408Z,16.00
2017-07-16T03:25:37.854Z,16.00
2017-07-16T03:28:05.418Z,16.10
2017-07-16T03:30:33.020Z,16.10
2017-07-16T03:33:00.604Z,16.20
2017-07-16T03:35:28.211Z,16.10
2017-07-16T03:37:56.568Z,16.00
2017-07-16T03:40:24.301Z,16.00
2017-07-16T03:42:51.862Z,16.10
2017-07-16T03:45:19.425Z,16.10
2017-07-16T03:47:47.155Z,16.20
2017-07-16T03:50:14.931Z,16.20
2017-07-16T03:52:42.493Z,16.20
2017-07-16T03:55:10.392Z,16.20
2017-07-16T03:57:37.950Z,16.30
2017-07-16T04:00:05.507Z,16.30
2017-07-16T04:02:33.243Z,16.40
2017-07-16T04:05:00.827Z,16.40
2017-07-16T04:07:28.384Z,16.40
2017-07-16T04:09:56.140Z,16.50
2017-07-16T04:12:23.713Z,16.50
2017-07-16T04:14:51.269Z,16.60
2017-07-16T04:17:19.018Z,16.60
2017-07-16T04:19:46.581Z,16.70
2017-07-16T04:22:14.145Z,16.70
2017-07-16T04:24:41.876Z,16.70
2017-07-16T04:27:09.435Z,16.70
2017-07-16T04:29:36.990Z,16.80
2017-07-16T04:32:04.728Z,16.80
2017-07-16T04:34:33.053Z,16.90
2017-07-16T04:37:00.600Z,16.90
2017-07-16T04:39:28.331Z,17.00
2017-07-16T04:41:56.650Z,17.00
2017-07-16T04:44:24.204Z,17.00
2017-07-16T04:46:51.801Z,17.10
2017-07-16T04:49:19.364Z,17.10
2017-07-16T04:51:46.919Z,17.10
2017-07-16T04:54:14.508Z,17.20
2017-07-16T04:56:42.086Z,17.20
2017-07-16T04:59:09.658Z,17.20
2017-07-16T05:01:37.261Z,17.30
2017-07-16T05:04:04.827Z,17.40
2017-07-16T05:06:33.151Z,17.60
2017-07-16T05:09:00.772Z,17.60
2017-07-16T05:11:29.118Z,17.70
2017-07-16T05:13:56.667Z,17.70
2017-07-16T05:16:24.441Z,17.70
2017-07-16T05:18:52.000Z,17.70
2017-07-16T05:21:19.573Z,17.80
2017-07-16T05:23:47.257Z,17.90
2017-07-16T05:26:14.821Z,18.00
2017-07-16T05:28:42.457Z,18.10
2017-07-16T05:31:10.981Z,18.20
2017-07-16T05:33:38.549Z,18.10
2017-07-16T05:36:07.633Z,18.30
2017-07-16T05:38:35.230Z,18.20
2017-07-16T05:41:02.797Z,18.30
2017-07-16T05:43:31.361Z,18.40
2017-07-16T05:45:59.278Z,18.50
2017-07-16T05:48:26.866Z,18.50
2017-07-16T05:50:54.731Z,18.60
2017-07-16T05:53:22.320Z,18.60
2017-07-16T05:55:49.880Z,18.60
2017-07-16T05:58:17.438Z,18.60
2017-07-16T06:00:45.050Z,18.60
2017-07-16T06:03:13.418Z,18.60
2017-07-16T06:05:41.749Z,18.60
2017-07-16T06:08:09.355Z,18.60
2017-07-16T06:10:37.676Z,18.60
2017-07-16T06:13:05.236Z,18.60
2017-07-16T06:15:32.843Z,18.70
2017-07-16T06:18:00.412Z,18.70
2017-07-16T06:20:27.994Z,18.70
2017-07-16T06:22:55.675Z,18.80
2017-07-16T06:25:23.252Z,18.80
2017-07-16T06:27:50.820Z,18.80
2017-07-16T06:30:18.749Z,18.80
2017-07-16T06:32:46.318Z,18.90
2017-07-16T06:35:13.880Z,18.90
2017-07-16T06:37:41.475Z,19.00
2017-07-16T06:40:09.044Z,19.00
2017-07-16T06:42:36.615Z,19.10
2017-07-16T06:45:04.977Z,19.20
2017-07-16T06:47:32.589Z,19.10
2017-07-16T06:50:00.158Z,19.20
2017-07-16T06:52:27.916Z,19.20
2017-07-16T06:54:55.476Z,19.20
2017-07-16T06:57:23.037Z,19.20
2017-07-16T06:59:51.162Z,19.30
2017-07-16T07:02:18.726Z,19.30
2017-07-16T07:04:47.085Z,19.50
2017-07-16T07:07:14.970Z,19.50
2017-07-16T07:09:43.298Z,19.60
2017-07-16T07:12:10.868Z,19.60
2017-07-16T07:14:38.472Z,19.60
2017-07-16T07:17:06.806Z,19.60
2017-07-16T07:19:34.394Z,19.60
2017-07-16T07:22:02.277Z,19.50
2017-07-16T07:24:30.813Z,19.40
2017-07-16T07:26:58.377Z,19.50
2017-07-16T07:29:26.104Z,19.30
2017-07-16T07:31:53.710Z,19.30
2017-07-16T07:34:21.264Z,19.30
2017-07-16T07:36:49.157Z,19.30
2017-07-16T07:39:16.717Z,19.20
2017-07-16T07:41:44.279Z,19.10
2017-07-16T07:44:12.853Z,19.00
2017-07-16T07:46:40.416Z,19.00
2017-07-16T07:49:07.978Z,19.10
2017-07-16T07:51:35.877Z,19.00
2017-07-16T07:54:03.431Z,19.00
2017-07-16T07:56:31.087Z,19.00
2017-07-16T07:58:58.816Z,19.10
2017-07-16T08:01:26.381Z,19.20
2017-07-16T08:03:53.948Z,19.30
2017-07-16T08:06:21.621Z,19.50
2017-07-16T08:08:49.949Z,20.00
2017-07-16T08:11:17.501Z,20.00
2017-07-16T08:13:45.253Z,20.20
2017-07-16T08:16:12.805Z,20.40
2017-07-16T08:18:40.402Z,20.50
2017-07-16T08:21:08.156Z,20.60
2017-07-16T08:23:35.737Z,20.70
2017-07-16T08:26:03.327Z,20.80
2017-07-16T08:28:32.454Z,20.70
2017-07-16T08:31:00.879Z,20.70
2017-07-16T08:33:29.461Z,20.70
2017-07-16T08:35:57.186Z,20.70
2017-07-16T08:38:24.768Z,20.70
2017-07-16T08:40:52.364Z,20.70
2017-07-16T08:43:20.744Z,20.90
2017-07-16T08:45:49.077Z,20.90
2017-07-16T08:48:16.880Z,20.90
2017-07-16T08:50:45.340Z,21.00
2017-07-16T08:53:13.297Z,21.00
2017-07-16T08:55:40.866Z,21.00
2017-07-16T08:58:08.581Z,20.90
2017-07-16T09:00:36.133Z,20.90
2017-07-16T09:03:03.907Z,20.90
2017-07-16T09:05:31.526Z,20.90
2017-07-16T09:07:59.097Z,20.90
2017-07-16T09:10:27.437Z,20.90
2017-07-16T09:12:55.321Z,20.90
2017-07-16T09:15:22.894Z,20.80
2017-07-16T09:17:51.221Z,20.70
2017-07-16T09:20:18.974Z,20.70
2017-07-16T09:22:46.533Z,20.60
2017-07-16T09:25:14.102Z,20.70
2017-07-16T09:27:41.970Z,20.60
2017-07-16T09:30:09.530Z,20.70
2017-07-16T09:32:37.094Z,20.70
2017-07-16T09:35:04.697Z,20.70
2017-07-16T09:37:33.025Z,20.70
2017-07-16T09:40:00.596Z,20.70
2017-07-16T09:42:28.316Z,20.70
2017-07-16T09:44:55.877Z,20.70
2017-07-16T09:47:23.434Z,20.60
2017-07-16T09:49:51.169Z,20.50
2017-07-16T09:52:18.734Z,20.50
2017-07-16T09:54:47.285Z,20.40
2017-07-16T09:57:14.885Z,20.40
2017-07-16T09:59:43.219Z,20.40
2017-07-16T10:02:10.779Z,20.30
2017-07-16T10:04:38.434Z,20.30
2017-07-16T10:07:05.989Z,20.30
2017-07-16T10:09:33.572Z,20.20
2017-07-16T10:12:01.185Z,20.20
2017-07-16T10:14:28.764Z,20.20
2017-07-16T10:16:56.362Z,20.10
2017-07-16T10:19:23.973Z,20.10
2017-07-16T10:21:51.543Z,20.10
2017-07-16T10:24:19.113Z,20.10
2017-07-16T10:26:46.845Z,20.10
2017-07-16T10:29:14.416Z,20.10
2017-07-16T10:31:41.977Z,20.10
2017-07-16T10:34:10.017Z,20.10
2017-07-16T10:36:37.706Z,20.20
2017-07-16T10:39:05.308Z,20.10
2017-07-16T10:41:33.048Z,20.10
2017-07-16T10:44:00.643Z,20.20
2017-07-16T10:46:28.312Z,20.20
2017-07-16T10:48:56.781Z,20.20
2017-07-16T10:51:24.353Z,20.10
2017-07-16T10:53:52.688Z,20.10
2017-07-16T10:56:20.461Z,20.10
2017-07-16T10:58:48.033Z,20.00
2017-07-16T11:01:15.585Z,20.00
2017-07-16T11:03:43.324Z,19.90
2017-07-16T11:06:10.902Z,19.90
2017-07-16T11:08:38.486Z,19.90
2017-07-16T11:11:06.081Z,19.90
2017-07-16T11:13:33.641Z,19.90
2017-07-16T11:16:01.224Z,19.80
2017-07-16T11:18:28.819Z,19.80
2017-07-16T11:20:56.393Z,19.80
2017-07-16T11:23:23.957Z,19.80
2017-07-16T11:25:51.570Z,19.80
2017-07-16T11:28:19.145Z,19.80
2017-07-16T11:30:46.718Z,19.80
2017-07-16T11:33:14.426Z,19.90
2017-07-16T11:35:42.041Z,19.90
2017-07-16T11:38:09.623Z,19.80
2017-07-16T11:40:37.376Z,19.80
2017-07-16T11:43:05.723Z,19.70
2017-07-16T11:45:33.294Z,19.80
2017-07-16T11:48:01.057Z,19.80
2017-07-16T11:50:28.633Z,19.90
2017-07-16T11:52:56.974Z,19.90
2017-07-16T11:55:24.570Z,20.00
2017-07-16T11:57:52.143Z,20.00
2017-07-16T12:00:19.708Z,20.10
2017-07-16T12:02:47.320Z,20.10
2017-07-16T12:05:14.902Z,20.20
2017-07-16T12:07:42.484Z,20.10
2017-07-16T12:10:10.436Z,20.10
2017-07-16T12:12:37.999Z,20.10
2017-07-16T12:15:06.357Z,20.00
2017-07-16T12:17:34.147Z,20.00
2017-07-16T12:20:02.491Z,20.10
2017-07-16T12:22:30.047Z,20.10
2017-07-16T12:24:57.662Z,20.20
2017-07-16T12:27:25.223Z,20.30
2017-07-16T12:29:52.792Z,20.40
2017-07-16T12:34:54.899Z,20.50
2017-07-16T12:37:22.578Z,20.50
2017-07-16T12:39:50.930Z,20.60
2017-07-16T12:42:18.492Z,20.60
2017-07-16T12:44:46.120Z,20.70
2017-07-16T12:47:13.687Z,20.70
2017-07-16T12:49:41.244Z,20.80
2017-07-16T12:52:09.080Z,20.80
2017-07-16T12:54:36.654Z,20.90
2017-07-16T12:57:04.214Z,20.90
2017-07-16T12:59:31.861Z,20.90
2017-07-16T13:01:59.422Z,20.90
2017-07-16T13:04:27.003Z,20.90
2017-07-16T13:06:54.952Z,20.80
2017-07-16T13:09:22.536Z,20.70
2017-07-16T13:11:50.108Z,20.70
2017-07-16T13:14:17.789Z,20.70
2017-07-16T13:16:45.358Z,20.70
2017-07-16T13:19:13.039Z,20.70
2017-07-16T13:21:40.668Z,20.60
2017-07-16T13:24:08.277Z,20.60
2017-07-16T13:26:35.856Z,20.60
2017-07-16T13:29:03.552Z,20.60
2017-07-16T13:31:31.109Z,20.50
2017-07-16T13:33:58.719Z,20.50
2017-07-16T13:36:26.712Z,20.50
2017-07-16T13:38:54.314Z,20.50
2017-07-16T13:41:21.882Z,20.50
2017-07-16T13:43:49.490Z,20.60
2017-07-16T13:46:17.057Z,20.60
2017-07-16T13:48:44.632Z,20.70
2017-07-16T13:51:12.228Z,20.80
2017-07-16T13:53:39.798Z,20.80
2017-07-16T13:56:07.396Z,20.80
2017-07-16T13:58:35.137Z,20.90
2017-07-16T14:01:03.472Z,21.10
2017-07-16T14:03:31.045Z,21.10
2017-07-16T14:05:58.739Z,21.10
2017-07-16T14:08:27.086Z,21.20
2017-07-16T14:10:54.672Z,21.20
2017-07-16T14:13:22.271Z,21.10
2017-07-16T14:15:49.843Z,21.10
2017-07-16T14:18:17.421Z,21.10
2017-07-16T14:20:45.318Z,21.10
2017-07-16T14:23:12.888Z,21.10
2017-07-16T14:25:41.231Z,21.00
2017-07-16T14:28:08.828Z,21.00
2017-07-16T14:30:36.396Z,21.00
2017-07-16T14:33:04.024Z,21.10
2017-07-16T14:35:31.664Z,21.00
2017-07-16T14:37:59.266Z,21.10
2017-07-16T14:40:26.854Z,21.10
2017-07-16T14:42:54.559Z,21.10
2017-07-16T14:45:22.138Z,21.10
2017-07-16T14:47:50.481Z,21.00
2017-07-16T14:50:18.276Z,21.00
2017-07-16T14:52:46.636Z,21.00
2017-07-16T14:55:14.220Z,21.00
2017-07-16T14:57:41.921Z,21.00
2017-07-16T15:00:09.491Z,20.90
2017-07-16T15:02:37.074Z,20.90
2017-07-16T15:05:04.843Z,20.90
2017-07-16T15:07:32.435Z,20.80
2017-07-16T15:10:00.009Z,20.80
2017-07-16T15:12:27.611Z,20.80
2017-07-16T15:14:55.191Z,20.80
2017-07-16T15:17:22.773Z,20.80
2017-07-16T15:19:50.397Z,20.70
2017-07-16T15:22:17.980Z,20.70
2017-07-16T15:24:45.567Z,20.50
2017-07-16T15:27:13.264Z,20.40
2017-07-16T15:29:40.837Z,20.40
2017-07-16T15:32:08.414Z,20.30
2017-07-16T15:34:36.173Z,20.40
2017-07-16T15:37:03.741Z,20.40
2017-07-16T15:39:31.316Z,20.40
2017-07-16T15:41:58.945Z,20.50
2017-07-16T15:44:26.532Z,20.50
2017-07-16T15:46:54.127Z,20.50
2017-07-16T15:49:21.737Z,20.50
2017-07-16T15:51:49.317Z,20.50
2017-07-16T15:54:16.903Z,20.50
2017-07-16T15:56:44.605Z,20.50
2017-07-16T15:59:12.175Z,20.50
2017-07-16T16:01:39.744Z,20.40
2017-07-16T16:04:08.301Z,20.40
2017-07-16T16:06:35.879Z,20.40
2017-07-16T16:09:03.480Z,20.40
2017-07-16T16:11:31.073Z,20.40
2017-07-16T16:13:58.631Z,20.30
2017-07-16T16:16:26.204Z,20.40
2017-07-16T16:18:53.828Z,20.20
2017-07-16T16:21:21.419Z,20.10
2017-07-16T16:23:48.998Z,19.90
2017-07-16T16:26:17.550Z,19.30
2017-07-16T16:28:45.125Z,19.30
2017-07-16T16:31:12.716Z,19.20
2017-07-16T16:33:40.572Z,19.10
2017-07-16T16:36:08.898Z,19.00
2017-07-16T16:38:36.484Z,19.00
2017-07-16T16:41:04.281Z,18.90
2017-07-16T16:43:31.864Z,18.90
2017-07-16T16:45:59.445Z,18.80
2017-07-16T16:48:27.197Z,18.70
2017-07-16T16:50:55.393Z,18.80
2017-07-16T16:53:22.992Z,18.80
2017-07-16T16:55:51.363Z,18.70
2017-07-16T16:58:18.949Z,18.70
2017-07-16T17:00:46.547Z,18.70
2017-07-16T17:03:15.378Z,18.70
2017-07-16T17:05:42.973Z,18.70
2017-07-16T17:08:10.573Z,18.70
2017-07-16T17:10:38.338Z,18.70
2017-07-16T17:13:05.910Z,18.80
2017-07-16T17:15:35.042Z,18.60
2017-07-16T17:18:02.839Z,18.60
2017-07-16T17:20:30.425Z,18.70
2017-07-16T17:22:57.984Z,18.70
2017-07-16T17:25:25.867Z,18.70
2017-07-16T17:27:53.461Z,18.70
2017-07-16T17:30:21.048Z,18.70
2017-07-16T17:32:48.828Z,18.80
2017-07-16T17:35:16.460Z,18.80
2017-07-16T17:37:44.058Z,18.90
2017-07-16T17:40:11.867Z,18.90
2017-07-16T17:42:39.444Z,19.00
2017-07-16T17:45:07.025Z,19.00
2017-07-16T17:47:34.664Z,19.10
2017-07-16T17:50:02.249Z,19.20
2017-07-16T17:52:29.854Z,19.30
2017-07-16T17:54:57.498Z,19.30
2017-07-16T17:57:25.851Z,19.20
2017-07-16T17:59:53.500Z,19.20
2017-07-16T18:02:24.205Z,19.20
2017-07-16T18:04:51.832Z,19.10
2017-07-16T18:07:20.182Z,19.10
2017-07-16T18:09:48.059Z,19.00
2017-07-16T18:12:16.420Z,18.90
2017-07-16T18:14:44.005Z,18.90
2017-07-16T18:17:11.661Z,18.80
2017-07-16T18:19:39.303Z,18.80
2017-07-16T18:22:06.930Z,18.70
2017-07-16T18:24:34.591Z,18.70
2017-07-16T18:27:02.171Z,18.70
2017-07-16T18:29:29.754Z,18.80
2017-07-16T18:31:57.481Z,18.80
2017-07-16T18:34:25.060Z,18.90
2017-07-16T18:36:52.665Z,18.90
2017-07-16T18:39:20.444Z,18.90
2017-07-16T18:41:48.138Z,18.80
2017-07-16T18:44:15.722Z,18.70
2017-07-16T18:46:43.452Z,18.60
2017-07-16T18:49:11.036Z,18.50
2017-07-16T18:51:38.692Z,18.50
2017-07-16T18:54:06.316Z,18.50
2017-07-16T18:56:33.892Z,18.50
2017-07-16T18:59:01.515Z,18.50
2017-07-16T19:01:30.076Z,18.50
2017-07-16T19:03:57.724Z,18.50
2017-07-16T19:06:25.302Z,18.50
2017-07-16T19:08:53.712Z,18.60
2017-07-16T19:11:21.280Z,18.50
2017-07-16T19:13:49.110Z,18.50
2017-07-16T19:16:17.639Z,18.50
2017-07-16T19:18:45.221Z,18.40
2017-07-16T19:21:12.823Z,18.40
2017-07-16T19:23:41.209Z,18.30
2017-07-16T19:26:09.025Z,18.30
2017-07-16T19:28:36.593Z,18.30
2017-07-16T19:31:04.283Z,18.20
2017-07-16T19:33:32.628Z,18.30
2017-07-16T19:36:00.245Z,18.30
2017-07-16T19:38:28.240Z,18.20
2017-07-16T19:40:55.825Z,18.20
2017-07-16T19:43:23.421Z,18.10
2017-07-16T19:45:51.184Z,18.10
2017-07-16T19:48:18.782Z,18.10
2017-07-16T19:50:46.361Z,18.00
2017-07-16T19:53:15.224Z,18.00
2017-07-16T19:55:42.811Z,18.10
2017-07-16T19:58:10.367Z,18.10
2017-07-16T20:00:38.121Z,18.20
2017-07-16T20:03:05.884Z,18.20
2017-07-16T20:05:33.447Z,18.20
2017-07-16T20:08:01.603Z,18.10
2017-07-16T20:10:29.184Z,18.10
2017-07-16T20:12:56.822Z,18.10
2017-07-16T20:15:24.594Z,18.10
2017-07-16T20:17:52.284Z,18.00
2017-07-16T20:20:20.550Z,18.00
2017-07-16T20:22:48.354Z,18.00
2017-07-16T20:25:16.800Z,18.10
2017-07-16T20:27:45.529Z,18.10
2017-07-16T20:30:13.479Z,18.10
2017-07-16T20:32:41.102Z,18.10
2017-07-16T20:35:08.725Z,18.20
2017-07-16T20:37:37.414Z,18.10
2017-07-16T20:40:05.001Z,18.10
2017-07-16T20:42:32.577Z,18.00
2017-07-16T20:45:00.480Z,18.00
2017-07-16T20:47:28.076Z,18.10
2017-07-16T20:49:55.766Z,18.00
2017-07-16T20:52:23.454Z,18.00
2017-07-16T20:54:51.047Z,18.00
2017-07-16T20:57:18.619Z,17.90
2017-07-16T20:59:46.659Z,17.80
2017-07-16T21:02:14.249Z,17.70
2017-07-16T21:04:42.433Z,17.50
2017-07-16T21:07:10.216Z,17.50
2017-07-16T21:09:37.773Z,17.40
2017-07-16T21:12:05.336Z,17.40
2017-07-16T21:14:33.147Z,17.40
2017-07-16T21:17:00.739Z,17.40
2017-07-16T21:19:28.839Z,17.30
2017-07-16T21:21:56.690Z,17.20
2017-07-16T21:24:24.337Z,17.10
2017-07-16T21:26:51.929Z,17.10
2017-07-16T21:29:19.535Z,17.10
2017-07-16T21:31:47.101Z,17.10
2017-07-16T21:34:14.677Z,17.10
2017-07-16T21:36:43.324Z,17.00
2017-07-16T21:39:10.916Z,16.90
2017-07-16T21:41:38.473Z,16.90
2017-07-16T21:44:06.545Z,16.80
2017-07-16T21:46:36.209Z,16.60
2017-07-16T21:49:04.564Z,16.40
2017-07-16T21:51:32.557Z,16.40
2017-07-16T21:54:00.123Z,16.30
2017-07-16T21:56:28.643Z,16.30
2017-07-16T21:58:56.562Z,16.30
2017-07-16T22:01:24.141Z,16.20
2017-07-16T22:03:51.715Z,16.20
2017-07-16T22:06:22.482Z,16.20
2017-07-16T22:08:50.169Z,16.30
2017-07-16T22:11:17.748Z,16.30
2017-07-16T22:13:46.349Z,16.40
2017-07-16T22:16:13.920Z,16.40
2017-07-16T22:18:41.484Z,16.50
2017-07-16T22:21:09.211Z,16.50
2017-07-16T22:23:37.541Z,16.60
2017-07-16T22:26:05.124Z,16.60
2017-07-16T22:28:32.726Z,16.60
2017-07-16T22:31:00.293Z,16.60
2017-07-16T22:33:27.858Z,16.60
2017-07-16T22:35:55.584Z,16.70
2017-07-16T22:38:23.174Z,16.60
2017-07-16T22:40:50.749Z,16.40
2017-07-16T22:43:18.430Z,16.30
2017-07-16T22:45:45.984Z,16.20
2017-07-16T22:48:13.545Z,16.10
2017-07-16T22:50:41.422Z,16.00
2017-07-16T22:53:08.992Z,16.00
2017-07-16T22:55:36.581Z,16.00
2017-07-16T22:58:04.323Z,15.90
2017-07-16T23:00:31.896Z,15.80
2017-07-16T23:02:59.453Z,15.80
2017-07-16T23:05:27.849Z,15.80
2017-07-16T23:07:56.167Z,15.80
2017-07-16T23:10:23.724Z,15.80
2017-07-16T23:12:51.317Z,15.70
2017-07-16T23:15:18.881Z,15.70
2017-07-16T23:17:46.496Z,15.60
2017-07-16T23:20:14.110Z,15.60
2017-07-16T23:22:41.665Z,15.60
2017-07-16T23:25:09.225Z,15.50
2017-07-16T23:27:37.184Z,15.50
2017-07-16T23:30:04.752Z,15.50
2017-07-16T23:32:32.309Z,15.60
2017-07-16T23:34:59.920Z,15.60
2017-07-16T23:37:27.490Z,15.60
2017-07-16T23:39:55.045Z,15.70
2017-07-16T23:42:22.636Z,15.80
2017-07-16T23:44:50.202Z,16.00
2017-07-16T23:47:17.772Z,16.00
2017-07-16T23:49:45.508Z,16.00
2017-07-16T23:52:13.070Z,15.80
2017-07-16T23:54:40.641Z,15.70
2017-07-16T23:57:08.392Z,15.50
2017-07-16T23:59:35.957Z,15.50
